createdAt,value
2022-10-05T00:01:26.292Z,10.32
2022-10-05T00:04:01.144Z,10.10
2022-10-05T00:06:31.119Z,11.57
2022-10-05T00:09:02.107Z,11.25
2022-10-05T00:11:30.402Z,10.65
2022-10-05T00:13:59.794Z,11.15
2022-10-05T00:16:28.118Z,11.15
2022-10-05T00:18:56.483Z,10.75
2022-10-05T00:21:26.609Z,11.23
2022-10-05T00:23:57.835Z,10.68
2022-10-05T00:26:32.917Z,10.40
2022-10-05T00:29:02.777Z,10.40
2022-10-05T00:31:33.949Z,10.35
2022-10-05T00:34:02.798Z,10.02
2022-10-05T00:36:31.161Z,10.50
2022-10-05T00:39:02.466Z,9.43
2022-10-05T00:41:41.293Z,10.55
2022-10-05T00:44:26.053Z,8.73
2022-10-05T00:46:58.541Z,9.27
2022-10-05T00:49:47.371Z,9.52
2022-10-05T00:52:27.311Z,9.02
2022-10-05T00:55:04.635Z,10.02
2022-10-05T00:57:48.538Z,9.63
2022-10-05T01:00:19.885Z,9.27
2022-10-05T01:02:56.765Z,9.60
2022-10-05T01:05:36.377Z,9.15
2022-10-05T01:08:14.378Z,9.75
2022-10-05T01:10:48.734Z,9.73
2022-10-05T01:13:32.377Z,9.07
2022-10-05T01:16:08.472Z,9.20
2022-10-05T01:18:43.622Z,8.75
2022-10-05T01:21:18.656Z,8.93
2022-10-05T01:24:21.206Z,9.35
2022-10-05T01:27:10.686Z,9.00
2022-10-05T01:29:44.885Z,9.07
2022-10-05T01:32:18.103Z,8.98
2022-10-05T01:34:54.693Z,8.82
2022-10-05T01:37:29.393Z,8.18
2022-10-05T01:40:08.830Z,8.65
2022-10-05T01:42:52.806Z,7.75
2022-10-05T01:45:30.665Z,8.02
2022-10-05T01:48:04.010Z,7.65
2022-10-05T01:50:41.975Z,7.68
2022-10-05T01:53:18.044Z,8.02
2022-10-05T01:55:54.818Z,7.25
2022-10-05T01:58:37.289Z,7.22
2022-10-05T02:01:16.102Z,7.38
2022-10-05T02:03:50.607Z,7.45
2022-10-05T02:06:21.772Z,7.72
2022-10-05T02:08:56.145Z,8.75
2022-10-05T02:11:24.424Z,7.53
2022-10-05T02:13:58.021Z,7.70
2022-10-05T02:16:33.113Z,7.97
2022-10-05T02:19:09.438Z,7.32
2022-10-05T02:21:40.215Z,7.72
2022-10-05T02:24:13.014Z,7.00
2022-10-05T02:26:42.760Z,7.50
2022-10-05T02:29:16.429Z,7.63
2022-10-05T02:31:51.801Z,8.05
2022-10-05T02:34:25.226Z,7.93
2022-10-05T02:37:12.420Z,7.80
2022-10-05T02:39:48.591Z,8.60
2022-10-05T02:42:24.251Z,8.60
2022-10-05T02:45:00.311Z,8.55
2022-10-05T02:47:38.445Z,8.73
2022-10-05T02:50:17.851Z,8.65
2022-10-05T02:52:54.430Z,8.60
2022-10-05T02:55:31.083Z,8.70
2022-10-05T02:58:05.856Z,9.98
2022-10-05T03:00:42.523Z,8.70
2022-10-05T03:03:21.233Z,9.38
2022-10-05T03:05:56.062Z,9.48
2022-10-05T03:08:31.985Z,9.32
2022-10-05T03:11:08.590Z,9.50
2022-10-05T03:13:48.167Z,9.50
2022-10-05T03:16:29.591Z,9.05
2022-10-05T03:19:10.355Z,9.13
2022-10-05T03:21:53.656Z,9.70
2022-10-05T03:24:45.048Z,9.57
2022-10-05T03:27:24.289Z,9.50
2022-10-05T03:30:02.436Z,9.38
2022-10-05T03:32:41.341Z,8.88
2022-10-05T03:35:16.878Z,9.32
2022-10-05T03:37:52.859Z,8.98
2022-10-05T03:40:30.601Z,8.73
2022-10-05T03:43:17.771Z,7.97
2022-10-05T03:45:56.208Z,8.10
2022-10-05T03:48:30.354Z,8.52
2022-10-05T03:51:08.972Z,9.07
2022-10-05T03:53:43.104Z,10.23
2022-10-05T03:56:16.624Z,10.13
2022-10-05T03:58:54.745Z,9.52
2022-10-05T04:01:27.182Z,9.18
2022-10-05T04:04:00.195Z,9.68
2022-10-05T04:06:34.742Z,9.40
2022-10-05T04:09:11.288Z,9.25
2022-10-05T04:11:43.811Z,8.63
2022-10-05T04:14:17.050Z,9.15
2022-10-05T04:16:48.688Z,8.52
2022-10-05T04:19:23.212Z,9.75
2022-10-05T04:21:56.323Z,10.50
2022-10-05T04:24:32.207Z,10.13
2022-10-05T04:27:07.075Z,10.32
2022-10-05T04:29:41.182Z,11.93
2022-10-05T04:32:31.455Z,11.18
2022-10-05T04:35:26.695Z,11.38
2022-10-05T04:38:05.753Z,10.85
2022-10-05T04:40:47.836Z,11.50
2022-10-05T04:43:20.714Z,10.73
2022-10-05T04:46:18.870Z,10.48
2022-10-05T04:49:09.334Z,11.00
2022-10-05T04:51:50.879Z,10.60
2022-10-05T04:54:34.575Z,11.38
2022-10-05T04:57:08.411Z,11.30
2022-10-05T05:00:10.167Z,10.65
2022-10-05T05:03:00.350Z,10.20
2022-10-05T05:05:48.530Z,10.60
2022-10-05T05:08:48.707Z,11.25
2022-10-05T05:11:29.167Z,11.88
2022-10-05T05:14:21.826Z,11.70
2022-10-05T05:16:58.400Z,11.50
2022-10-05T05:19:43.054Z,11.00
2022-10-05T05:22:21.593Z,11.77
2022-10-05T05:25:05.682Z,11.50
2022-10-05T05:27:42.927Z,11.43
2022-10-05T05:30:21.262Z,10.93
2022-10-05T05:33:02.279Z,11.35
2022-10-05T05:35:45.330Z,12.02
2022-10-05T05:38:26.005Z,9.90
2022-10-05T05:41:08.194Z,10.63
2022-10-05T05:43:53.121Z,10.68
2022-10-05T05:46:51.213Z,11.15
2022-10-05T05:49:21.877Z,10.77
2022-10-05T05:51:55.590Z,9.82
2022-10-05T05:54:31.127Z,10.57
2022-10-05T05:57:09.115Z,12.95
2022-10-05T05:59:52.239Z,14.23
2022-10-05T06:02:25.782Z,15.10
2022-10-05T06:04:58.923Z,15.25
2022-10-05T06:07:31.100Z,12.90
2022-10-05T06:10:07.378Z,12.70
2022-10-05T06:12:46.741Z,11.57
2022-10-05T06:15:35.120Z,12.40
2022-10-05T06:18:10.505Z,14.30
2022-10-05T06:20:42.934Z,12.80
2022-10-05T06:23:18.282Z,12.77
2022-10-05T06:26:09.763Z,9.85
2022-10-05T06:28:39.731Z,10.20
2022-10-05T06:31:21.670Z,9.23
2022-10-05T06:34:01.607Z,9.20
2022-10-05T06:36:42.174Z,9.35
2022-10-05T06:39:33.018Z,9.13
2022-10-05T06:42:41.330Z,9.18
2022-10-05T06:45:40.196Z,10.35
2022-10-05T06:48:27.254Z,9.23
2022-10-05T06:51:16.865Z,9.65
2022-10-05T06:54:08.188Z,8.80
2022-10-05T06:56:42.372Z,8.68
2022-10-05T06:59:21.313Z,8.80
2022-10-05T07:01:56.145Z,8.52
2022-10-05T07:04:55.354Z,8.15
2022-10-05T07:07:31.587Z,8.05
2022-10-05T07:10:13.805Z,7.97
2022-10-05T07:12:51.043Z,7.90
2022-10-05T07:15:34.475Z,8.07
2022-10-05T07:18:22.076Z,7.65
2022-10-05T07:21:00.398Z,7.15
2022-10-05T07:23:43.064Z,7.10
2022-10-05T07:26:19.570Z,7.70
2022-10-05T07:28:53.540Z,7.10
2022-10-05T07:31:30.882Z,6.93
2022-10-05T07:34:06.935Z,6.93
2022-10-05T07:37:00.182Z,6.90
2022-10-05T07:39:59.115Z,6.57
2022-10-05T07:42:48.996Z,6.55
2022-10-05T07:45:29.828Z,6.55
2022-10-05T07:48:05.916Z,6.95
2022-10-05T07:50:41.554Z,6.57
2022-10-05T07:53:19.870Z,5.80
2022-10-05T07:55:53.550Z,5.70
2022-10-05T07:58:28.992Z,6.05
2022-10-05T08:01:09.326Z,4.95
2022-10-05T08:03:54.169Z,5.28
2022-10-05T08:06:35.973Z,5.32
2022-10-05T08:09:13.750Z,5.07
2022-10-05T08:11:51.761Z,4.82
2022-10-05T08:14:29.754Z,4.82
2022-10-05T08:17:00.971Z,5.70
2022-10-05T08:19:40.736Z,7.20
2022-10-05T08:22:13.901Z,7.65
2022-10-05T08:24:50.544Z,6.65
2022-10-05T08:27:26.294Z,6.22
2022-10-05T08:29:59.884Z,6.80
2022-10-05T08:32:35.285Z,4.28
2022-10-05T08:35:15.254Z,5.90
2022-10-05T08:37:44.955Z,4.50
2022-10-05T08:40:50.928Z,4.78
2022-10-05T08:43:40.902Z,4.10
2022-10-05T08:46:47.621Z,4.05
2022-10-05T08:49:47.785Z,4.57
2022-10-05T08:52:26.415Z,3.85
2022-10-05T08:55:21.381Z,4.65
2022-10-05T08:58:35.651Z,4.00
2022-10-05T09:01:11.356Z,3.92
2022-10-05T09:03:56.057Z,4.45
2022-10-05T09:06:50.081Z,4.35
2022-10-05T09:09:35.199Z,3.90
2022-10-05T09:12:26.169Z,3.95
2022-10-05T09:15:25.320Z,3.97
2022-10-05T09:18:33.393Z,4.05
2022-10-05T09:21:04.233Z,4.40
2022-10-05T09:23:40.041Z,3.85
2022-10-05T09:26:10.750Z,4.20
2022-10-05T09:28:54.563Z,4.07
2022-10-05T09:31:52.484Z,3.97
2022-10-05T09:34:56.752Z,5.63
2022-10-05T09:37:47.112Z,4.15
2022-10-05T09:40:45.077Z,3.78
2022-10-05T09:43:37.809Z,3.60
2022-10-05T09:46:45.209Z,3.55
2022-10-05T09:49:33.888Z,4.28
2022-10-05T09:52:29.200Z,3.67
2022-10-05T09:55:31.146Z,3.58
2022-10-05T09:58:34.682Z,3.63
2022-10-05T10:01:33.157Z,4.30
2022-10-05T10:04:20.522Z,3.65
2022-10-05T10:07:23.010Z,4.32
2022-10-05T10:10:11.686Z,3.92
2022-10-05T10:12:56.988Z,3.30
2022-10-05T10:15:59.586Z,3.38
2022-10-05T10:18:55.036Z,3.38
2022-10-05T10:21:46.277Z,3.28
2022-10-05T10:24:30.799Z,2.90
2022-10-05T10:27:12.281Z,3.85
2022-10-05T10:30:12.576Z,3.20
2022-10-05T10:33:22.129Z,3.30
2022-10-05T10:36:02.994Z,3.10
2022-10-05T10:38:41.500Z,3.85
2022-10-05T10:42:11.583Z,3.20
2022-10-05T10:45:11.552Z,3.60
2022-10-05T10:47:52.268Z,2.90
2022-10-05T10:50:54.452Z,3.13
2022-10-05T10:53:56.169Z,3.00
2022-10-05T10:57:04.103Z,2.90
2022-10-05T11:00:15.657Z,2.78
2022-10-05T11:03:12.792Z,3.05
2022-10-05T11:06:13.794Z,2.92
2022-10-05T11:09:10.823Z,3.15
2022-10-05T11:12:04.938Z,3.10
2022-10-05T11:15:10.440Z,2.70
2022-10-05T11:18:11.411Z,2.80
2022-10-05T11:21:18.624Z,2.70
2022-10-05T11:24:21.670Z,2.42
2022-10-05T11:27:09.074Z,2.92
2022-10-05T11:30:13.581Z,3.28
2022-10-05T11:33:19.672Z,3.20
2022-10-05T11:36:04.973Z,2.75
2022-10-05T11:38:52.701Z,2.92
2022-10-05T11:41:56.182Z,2.40
2022-10-05T11:44:52.046Z,3.00
2022-10-05T11:47:25.652Z,2.67
2022-10-05T11:50:06.562Z,2.60
2022-10-05T11:52:41.556Z,2.60
2022-10-05T11:55:24.641Z,2.78
2022-10-05T11:57:57.417Z,2.70
2022-10-05T12:00:32.503Z,2.53
2022-10-05T12:03:23.652Z,2.63
2022-10-05T12:06:14.111Z,2.85
2022-10-05T12:08:53.996Z,2.50
2022-10-05T12:11:47.962Z,2.80
2022-10-05T12:14:28.260Z,2.53
2022-10-05T12:17:01.095Z,2.90
2022-10-05T12:19:36.628Z,2.83
2022-10-05T12:22:15.523Z,2.85
2022-10-05T12:25:01.701Z,2.60
2022-10-05T12:27:37.214Z,2.65
2022-10-05T12:30:14.593Z,2.85
2022-10-05T12:32:59.368Z,2.63
2022-10-05T12:35:50.171Z,2.80
2022-10-05T12:38:28.489Z,2.58
2022-10-05T12:41:05.472Z,2.70
2022-10-05T12:43:41.654Z,2.78
2022-10-05T12:46:20.300Z,2.67
2022-10-05T12:49:13.904Z,2.63
2022-10-05T12:51:46.069Z,2.47
2022-10-05T12:54:22.831Z,2.70
2022-10-05T12:56:56.176Z,2.65
2022-10-05T12:59:37.701Z,2.63
2022-10-05T13:02:17.583Z,2.90
2022-10-05T13:04:54.917Z,2.90
2022-10-05T13:07:42.357Z,2.92
2022-10-05T13:10:28.138Z,3.10
2022-10-05T13:13:09.054Z,2.90
2022-10-05T13:15:49.066Z,3.50
2022-10-05T13:18:24.821Z,3.00
2022-10-05T13:21:02.884Z,2.95
2022-10-05T13:23:40.712Z,3.08
2022-10-05T13:26:13.463Z,3.28
2022-10-05T13:28:45.557Z,3.42
2022-10-05T13:31:18.943Z,3.05
2022-10-05T13:34:03.835Z,3.30
2022-10-05T13:36:43.469Z,3.60
2022-10-05T13:39:23.616Z,3.65
2022-10-05T13:41:56.066Z,4.20
2022-10-05T13:44:34.096Z,3.50
2022-10-05T13:47:05.100Z,3.40
2022-10-05T13:49:40.172Z,3.40
2022-10-05T13:52:27.349Z,3.92
2022-10-05T13:55:02.712Z,4.13
2022-10-05T13:57:45.286Z,3.53
2022-10-05T14:00:24.208Z,3.70
2022-10-05T14:02:56.571Z,3.92
2022-10-05T14:05:26.936Z,3.75
2022-10-05T14:07:59.334Z,3.42
2022-10-05T14:10:35.236Z,3.83
2022-10-05T14:13:19.117Z,3.72
2022-10-05T14:15:59.697Z,3.38
2022-10-05T14:18:31.439Z,3.53
2022-10-05T14:21:05.404Z,3.65
2022-10-05T14:23:35.458Z,3.60
2022-10-05T14:26:04.607Z,3.53
2022-10-05T14:28:35.150Z,3.88
2022-10-05T14:31:13.986Z,4.35
2022-10-05T14:33:43.351Z,3.70
2022-10-05T14:36:16.287Z,4.53
2022-10-05T14:38:56.295Z,3.88
2022-10-05T14:41:27.786Z,3.60
2022-10-05T14:44:02.238Z,3.97
2022-10-05T14:46:33.223Z,3.92
2022-10-05T14:49:22.207Z,4.03
2022-10-05T14:51:51.625Z,3.67
2022-10-05T14:54:42.062Z,4.32
2022-10-05T14:57:25.388Z,4.70
2022-10-05T15:00:11.261Z,4.15
2022-10-05T15:02:55.674Z,4.22
2022-10-05T15:05:31.463Z,4.40
2022-10-05T15:08:10.033Z,4.70
2022-10-05T15:10:44.407Z,4.22
2022-10-05T15:13:17.363Z,3.90
2022-10-05T15:15:52.065Z,4.20
2022-10-05T15:18:32.327Z,3.83
2022-10-05T15:21:24.162Z,4.10
2022-10-05T15:23:57.585Z,4.43
2022-10-05T15:26:39.598Z,3.75
2022-10-05T15:29:17.698Z,4.43
2022-10-05T15:31:56.097Z,4.00
2022-10-05T15:34:31.652Z,4.47
2022-10-05T15:37:07.300Z,4.38
2022-10-05T15:39:43.343Z,3.92
2022-10-05T15:42:16.649Z,3.65
2022-10-05T15:44:56.444Z,4.30
2022-10-05T15:47:35.365Z,4.10
2022-10-05T15:50:14.920Z,4.50
2022-10-05T15:52:49.602Z,4.18
2022-10-05T15:55:35.625Z,4.13
2022-10-05T15:58:29.071Z,4.25
2022-10-05T16:01:02.303Z,4.57
2022-10-05T16:03:45.426Z,4.25
2022-10-05T16:06:42.624Z,4.93
2022-10-05T16:09:35.254Z,4.40
2022-10-05T16:12:12.813Z,4.75
2022-10-05T16:14:56.674Z,4.75
2022-10-05T16:17:51.063Z,4.55
2022-10-05T16:20:32.643Z,4.82
2022-10-05T16:23:09.655Z,4.50
2022-10-05T16:25:47.900Z,4.40
2022-10-05T16:28:31.009Z,5.50
2022-10-05T16:31:17.796Z,5.03
2022-10-05T16:33:59.415Z,6.40
2022-10-05T16:36:40.348Z,5.07
2022-10-05T16:39:16.887Z,5.93
2022-10-05T16:41:52.773Z,6.03
2022-10-05T16:44:32.501Z,5.28
2022-10-05T16:47:08.008Z,5.63
2022-10-05T16:49:44.036Z,5.90
2022-10-05T16:52:19.004Z,5.35
2022-10-05T16:54:52.910Z,5.40
2022-10-05T16:57:23.939Z,5.28
2022-10-05T17:00:13.485Z,5.93
2022-10-05T17:03:09.051Z,5.22
2022-10-05T17:05:56.086Z,6.18
2022-10-05T17:08:53.138Z,5.78
2022-10-05T17:11:34.873Z,6.20
2022-10-05T17:14:29.756Z,6.07
2022-10-05T17:17:31.014Z,5.45
2022-10-05T17:20:13.896Z,5.38
2022-10-05T17:22:52.301Z,5.95
2022-10-05T17:25:27.907Z,5.95
2022-10-05T17:27:57.945Z,5.68
2022-10-05T17:30:51.638Z,5.90
2022-10-05T17:33:27.487Z,5.95
2022-10-05T17:36:18.797Z,6.32
2022-10-05T17:38:53.006Z,5.78
2022-10-05T17:41:24.871Z,6.18
2022-10-05T17:44:33.122Z,5.90
2022-10-05T17:47:04.134Z,6.07
2022-10-05T17:50:09.955Z,6.43
2022-10-05T17:53:01.870Z,6.20
2022-10-05T17:56:01.956Z,5.75
2022-10-05T17:59:04.860Z,6.05
2022-10-05T18:01:35.857Z,6.15
2022-10-05T18:04:42.392Z,6.50
2022-10-05T18:07:21.072Z,6.18
2022-10-05T18:10:16.697Z,6.53
2022-10-05T18:12:50.152Z,6.25
2022-10-05T18:15:48.804Z,6.80
2022-10-05T18:18:36.704Z,6.63
2022-10-05T18:21:32.823Z,7.00
2022-10-05T18:24:29.805Z,6.75
2022-10-05T18:27:12.744Z,6.32
2022-10-05T18:30:05.444Z,6.75
2022-10-05T18:32:52.082Z,7.10
2022-10-05T18:35:25.760Z,6.25
2022-10-05T18:38:04.851Z,7.03
2022-10-05T18:40:43.349Z,6.30
2022-10-05T18:43:27.734Z,7.32
2022-10-05T18:46:08.494Z,6.30
2022-10-05T18:48:47.385Z,6.00
2022-10-05T18:51:23.046Z,6.00
2022-10-05T18:54:06.828Z,6.53
2022-10-05T18:56:40.826Z,5.70
2022-10-05T18:59:24.435Z,6.22
2022-10-05T19:02:02.351Z,7.60
2022-10-05T19:04:41.588Z,6.80
2022-10-05T19:07:20.469Z,6.90
2022-10-05T19:10:08.736Z,6.32
2022-10-05T19:13:06.781Z,6.70
2022-10-05T19:15:45.515Z,6.70
2022-10-05T19:18:43.275Z,6.82
2022-10-05T19:21:25.106Z,6.72
2022-10-05T19:24:40.717Z,6.43
2022-10-05T19:27:16.141Z,6.55
2022-10-05T19:30:03.786Z,7.32
2022-10-05T19:32:43.520Z,6.45
2022-10-05T19:35:21.617Z,6.45
2022-10-05T19:38:01.624Z,6.28
2022-10-05T19:40:36.848Z,6.30
2022-10-05T19:43:32.407Z,6.00
2022-10-05T19:46:16.254Z,6.13
2022-10-05T19:48:51.348Z,6.35
2022-10-05T19:51:28.811Z,6.72
2022-10-05T19:54:01.625Z,6.65
2022-10-05T19:56:34.082Z,6.90
2022-10-05T19:59:13.327Z,6.50
2022-10-05T20:01:50.662Z,6.90
2022-10-05T20:04:36.694Z,6.50
2022-10-05T20:07:05.692Z,6.15
2022-10-05T20:09:57.932Z,7.07
2022-10-05T20:12:50.869Z,6.72
2022-10-05T20:15:38.931Z,6.13
2022-10-05T20:19:06.185Z,7.25
2022-10-05T20:21:48.275Z,6.32
2022-10-05T20:24:18.974Z,6.75
2022-10-05T20:27:16.208Z,7.00
2022-10-05T20:29:46.916Z,6.20
2022-10-05T20:32:17.928Z,7.35
2022-10-05T20:34:47.922Z,6.88
2022-10-05T20:37:19.232Z,7.20
2022-10-05T20:39:48.377Z,6.70
2022-10-05T20:42:16.706Z,7.13
2022-10-05T20:44:45.622Z,7.53
2022-10-05T20:47:14.646Z,6.78
2022-10-05T20:49:43.181Z,7.05
2022-10-05T20:52:15.195Z,7.72
2022-10-05T20:57:15.291Z,8.02
2022-10-05T20:59:43.532Z,9.15
2022-10-05T21:02:11.742Z,23.35
2022-10-05T21:04:41.684Z,11.32
2022-10-05T21:07:10.228Z,8.77
2022-10-05T21:09:40.946Z,8.20
2022-10-05T21:12:10.826Z,7.95
2022-10-05T21:14:39.198Z,7.45
2022-10-05T21:17:07.835Z,7.95
2022-10-05T21:19:38.473Z,8.07
2022-10-05T21:22:08.590Z,8.38
2022-10-05T21:24:37.824Z,9.00
2022-10-05T21:27:06.242Z,9.90
2022-10-05T21:29:37.115Z,9.57
2022-10-05T21:32:08.735Z,10.95
2022-10-05T21:34:37.147Z,8.38
2022-10-05T21:37:05.508Z,9.80
2022-10-05T21:39:35.211Z,13.75
2022-10-05T21:42:03.635Z,12.88
2022-10-05T21:44:32.033Z,11.15
2022-10-05T21:47:01.999Z,10.57
2022-10-05T21:49:31.201Z,14.23
2022-10-05T21:52:01.095Z,10.80
2022-10-05T21:54:29.770Z,10.45
2022-10-05T21:57:00.137Z,9.88
2022-10-05T21:59:32.429Z,11.68
2022-10-05T22:02:02.488Z,9.90
2022-10-05T22:04:30.726Z,8.52
2022-10-05T22:06:59.316Z,8.45
2022-10-05T22:09:27.606Z,10.38
2022-10-05T22:11:57.390Z,9.02
2022-10-05T22:14:25.845Z,9.18
2022-10-05T22:16:54.223Z,10.60
2022-10-05T22:19:24.027Z,10.07
2022-10-05T22:21:52.458Z,10.07
2022-10-05T22:24:20.737Z,9.90
2022-10-05T22:26:51.514Z,9.02
2022-10-05T22:29:20.543Z,10.35
2022-10-05T22:31:49.303Z,9.63
2022-10-05T22:34:19.074Z,9.57
2022-10-05T22:36:49.412Z,10.18
2022-10-05T22:39:18.368Z,10.35
2022-10-05T22:41:46.764Z,11.63
2022-10-05T22:44:15.195Z,9.80
2022-10-05T22:46:43.434Z,11.02
2022-10-05T22:49:11.725Z,10.32
2022-10-05T22:51:40.143Z,11.20
2022-10-05T22:54:09.846Z,13.27
2022-10-05T22:56:38.061Z,14.80
2022-10-05T22:59:06.261Z,11.45
2022-10-05T23:01:34.589Z,10.88
2022-10-05T23:04:02.983Z,10.50
2022-10-05T23:06:32.181Z,10.73
2022-10-05T23:09:00.431Z,10.27
2022-10-05T23:11:31.231Z,10.70
2022-10-05T23:14:00.419Z,10.45
2022-10-05T23:16:30.238Z,10.65
2022-10-05T23:18:59.195Z,11.55
2022-10-05T23:21:30.351Z,9.85
2022-10-05T23:23:58.777Z,10.80
2022-10-05T23:26:27.208Z,9.90
2022-10-05T23:28:56.913Z,10.68
2022-10-05T23:31:27.429Z,10.88
2022-10-05T23:33:55.880Z,10.90
2022-10-05T23:36:26.512Z,10.07
2022-10-05T23:38:55.128Z,9.43
2022-10-05T23:41:23.678Z,10.35
2022-10-05T23:43:52.107Z,9.88
2022-10-05T23:46:22.296Z,10.70
2022-10-05T23:48:51.514Z,9.85
2022-10-05T23:51:20.105Z,9.50
2022-10-05T23:53:48.381Z,9.25
2022-10-05T23:56:16.622Z,10.80
2022-10-05T23:58:45.119Z,9.98
